createdAt,value
2018-11-20T00:00:06.811Z,59.91
2018-11-20T00:03:04.209Z,59.82
2018-11-20T00:06:04.531Z,60.05
2018-11-20T00:09:01.821Z,59.71
2018-11-20T00:12:08.607Z,60.35
2018-11-20T00:14:56.949Z,60.26
2018-11-20T00:17:45.290Z,60.14
2018-11-20T00:20:33.911Z,60.04
2018-11-20T00:23:21.075Z,60.33
2018-11-20T00:26:11.978Z,60.63
2018-11-20T00:29:18.531Z,60.68
2018-11-20T00:32:24.981Z,60.34
2018-11-20T00:35:29.355Z,60.50
2018-11-20T00:38:17.721Z,60.68
2018-11-20T00:41:21.460Z,60.93
2018-11-20T00:44:08.546Z,60.86
2018-11-20T00:47:02.786Z,60.75
2018-11-20T00:49:49.780Z,60.89
2018-11-20T00:52:41.017Z,60.94
2018-11-20T00:56:07.813Z,60.99
2018-11-20T00:59:05.073Z,61.18
2018-11-20T01:01:53.485Z,61.06
2018-11-20T01:04:40.226Z,61.21
2018-11-20T01:07:28.569Z,61.31
2018-11-20T01:10:25.997Z,61.65
2018-11-20T01:13:07.120Z,61.64
2018-11-20T01:15:46.309Z,61.25
2018-11-20T01:18:36.738Z,61.64
2018-11-20T01:21:25.186Z,61.78
2018-11-20T01:24:07.491Z,61.55
2018-11-20T01:26:55.834Z,61.75
2018-11-20T01:29:59.501Z,61.90
2018-11-20T01:32:53.709Z,61.63
2018-11-20T01:35:40.712Z,62.10
2018-11-20T01:38:41.277Z,62.15
2018-11-20T01:41:33.890Z,61.78
2018-11-20T01:44:24.957Z,62.04
2018-11-20T01:47:15.973Z,62.02
2018-11-20T01:50:02.888Z,62.13
2018-11-20T01:52:57.291Z,62.24
2018-11-20T01:55:44.425Z,62.00
2018-11-20T01:58:44.852Z,61.97
2018-11-20T02:01:31.834Z,62.19
2018-11-20T02:04:18.555Z,62.19
2018-11-20T02:07:06.249Z,62.15
2018-11-20T02:09:46.339Z,62.20
2018-11-20T02:12:33.530Z,62.11
2018-11-20T02:15:24.704Z,61.72
2018-11-20T02:18:17.931Z,61.91
2018-11-20T02:21:10.580Z,62.04
2018-11-20T02:24:01.969Z,62.16
2018-11-20T02:26:50.345Z,62.15
2018-11-20T02:29:37.199Z,62.01
2018-11-20T02:32:19.693Z,62.05
2018-11-20T02:35:10.746Z,62.29
2018-11-20T02:37:56.573Z,61.89
2018-11-20T02:40:43.557Z,61.91
2018-11-20T02:43:31.901Z,62.10
2018-11-20T02:46:25.365Z,62.09
2018-11-20T02:49:12.094Z,62.48
2018-11-20T02:52:09.489Z,62.36
2018-11-20T02:55:13.109Z,62.32
2018-11-20T02:57:58.065Z,62.46
2018-11-20T03:00:45.556Z,62.46
2018-11-20T03:03:32.615Z,62.22
2018-11-20T03:06:26.589Z,62.44
2018-11-20T03:09:30.024Z,62.50
2018-11-20T03:12:27.354Z,62.49
2018-11-20T03:15:24.419Z,62.26
2018-11-20T03:18:11.650Z,62.67
2018-11-20T03:21:11.807Z,62.77
2018-11-20T03:24:18.349Z,62.45
2018-11-20T03:27:21.881Z,62.42
2018-11-20T03:31:18.102Z,62.36
2018-11-20T03:34:23.402Z,62.20
2018-11-20T03:37:10.899Z,62.54
2018-11-20T03:39:57.718Z,62.53
2018-11-20T03:42:57.783Z,62.48
2018-11-20T03:45:49.038Z,62.40
2018-11-20T03:48:55.336Z,62.43
2018-11-20T03:51:43.666Z,61.97
2018-11-20T03:54:44.258Z,62.29
2018-11-20T03:57:21.002Z,61.99
2018-11-20T04:00:07.848Z,62.27
2018-11-20T04:02:55.019Z,62.13
2018-11-20T04:05:55.763Z,62.16
2018-11-20T04:08:56.389Z,62.35
2018-11-20T04:12:02.675Z,62.14
2018-11-20T04:14:53.329Z,62.21
2018-11-20T04:17:56.949Z,62.45
2018-11-20T04:20:43.967Z,62.51
2018-11-20T04:23:22.003Z,62.76
2018-11-20T04:26:10.378Z,62.72
2018-11-20T04:28:58.727Z,62.73
2018-11-20T04:32:20.735Z,62.53
2018-11-20T04:35:37.942Z,62.43
2018-11-20T04:38:23.568Z,62.55
2018-11-20T04:41:11.989Z,62.70
2018-11-20T04:43:58.977Z,62.40
2018-11-20T04:46:45.945Z,62.69
2018-11-20T04:49:34.625Z,62.39
2018-11-20T04:52:21.723Z,62.62
2018-11-20T04:55:04.702Z,62.22
2018-11-20T04:57:51.682Z,62.49
2018-11-20T05:00:38.669Z,62.72
2018-11-20T05:03:42.275Z,62.69
2018-11-20T05:06:19.433Z,62.78
2018-11-20T05:09:10.913Z,62.33
2018-11-20T05:12:08.649Z,62.76
2018-11-20T05:14:55.725Z,62.82
2018-11-20T05:17:50.383Z,62.71
2018-11-20T05:20:38.770Z,62.79
2018-11-20T05:23:18.972Z,62.75
2018-11-20T05:25:57.278Z,62.69
2018-11-20T05:28:46.399Z,62.80
2018-11-20T05:31:49.790Z,62.89
2018-11-20T05:34:38.121Z,62.56
2018-11-20T05:37:25.255Z,62.59
2018-11-20T05:40:19.473Z,62.75
2018-11-20T05:43:10.429Z,62.87
2018-11-20T05:45:57.446Z,62.66
2018-11-20T05:48:54.928Z,62.66
2018-11-20T05:51:42.476Z,62.50
2018-11-20T05:54:30.240Z,62.40
2018-11-20T05:57:23.539Z,62.65
2018-11-20T06:00:31.663Z,62.56
2018-11-20T06:03:20.471Z,62.57
2018-11-20T06:06:12.204Z,62.47
2018-11-20T06:08:59.514Z,62.49
2018-11-20T06:11:48.275Z,62.59
2018-11-20T06:14:36.145Z,62.74
2018-11-20T06:17:23.548Z,62.67
2018-11-20T06:20:12.068Z,62.81
2018-11-20T06:22:59.138Z,62.69
2018-11-20T06:25:53.212Z,62.50
2018-11-20T06:28:50.382Z,62.29
2018-11-20T06:31:37.198Z,62.83
2018-11-20T06:34:24.186Z,62.30
2018-11-20T06:37:11.353Z,62.13
2018-11-20T06:39:59.143Z,62.51
2018-11-20T06:42:59.684Z,62.31
2018-11-20T06:45:54.079Z,62.21
2018-11-20T06:48:40.474Z,62.47
2018-11-20T06:51:23.230Z,62.08
2018-11-20T06:54:14.395Z,62.24
2018-11-20T06:56:58.526Z,62.31
2018-11-20T07:00:04.916Z,62.09
2018-11-20T07:02:51.964Z,61.90
2018-11-20T07:05:40.047Z,61.35
2018-11-20T07:08:33.972Z,61.85
2018-11-20T07:11:30.889Z,61.62
2018-11-20T07:14:24.130Z,62.04
2018-11-20T07:17:32.738Z,61.84
2018-11-20T07:20:20.095Z,61.95
2018-11-20T07:23:14.330Z,61.61
2018-11-20T07:26:03.218Z,61.97
2018-11-20T07:28:51.524Z,62.07
2018-11-20T07:31:38.869Z,61.78
2018-11-20T07:34:36.503Z,61.55
2018-11-20T07:37:20.645Z,61.72
2018-11-20T07:40:05.285Z,62.15
2018-11-20T07:43:08.613Z,61.60
2018-11-20T07:45:55.729Z,61.84
2018-11-20T07:48:53.753Z,61.74
2018-11-20T07:51:47.770Z,61.14
2018-11-20T07:54:48.284Z,61.64
2018-11-20T07:57:29.770Z,62.40
2018-11-20T08:00:18.148Z,63.41
2018-11-20T08:02:59.313Z,63.37
2018-11-20T08:05:44.838Z,64.66
2018-11-20T08:08:31.790Z,65.73
2018-11-20T08:11:18.876Z,66.70
2018-11-20T08:14:25.356Z,67.08
2018-11-20T08:17:17.205Z,68.29
2018-11-20T08:20:03.963Z,69.70
2018-11-20T08:22:58.717Z,70.81
2018-11-20T08:25:50.098Z,71.48
2018-11-20T08:28:41.145Z,71.35
2018-11-20T08:31:32.593Z,71.99
2018-11-20T08:34:21.052Z,71.76
2018-11-20T08:37:15.435Z,72.06
2018-11-20T08:40:02.790Z,72.47
2018-11-20T08:42:49.687Z,72.46
2018-11-20T08:45:50.098Z,72.64
2018-11-20T08:48:37.327Z,73.06
2018-11-20T08:51:34.931Z,73.65
2018-11-20T08:54:26.168Z,74.05
2018-11-20T08:57:13.045Z,74.64
2018-11-20T08:59:57.705Z,74.64
2018-11-20T09:03:01.401Z,74.76
2018-11-20T09:06:01.893Z,74.57
2018-11-20T09:08:53.442Z,74.55
2018-11-20T09:11:40.450Z,74.19
2018-11-20T09:14:37.689Z,74.72
2018-11-20T09:17:41.553Z,73.35
2018-11-20T09:20:29.933Z,73.56
2018-11-20T09:23:18.238Z,73.71
2018-11-20T09:26:15.124Z,73.62
2018-11-20T09:29:01.170Z,73.95
2018-11-20T09:32:01.688Z,74.29
2018-11-20T09:35:08.380Z,73.80
2018-11-20T09:37:56.638Z,74.31
2018-11-20T09:41:09.187Z,72.74
2018-11-20T09:44:24.533Z,72.88
2018-11-20T09:47:11.744Z,73.05
2018-11-20T09:50:08.776Z,72.34
2018-11-20T09:52:57.259Z,71.95
2018-11-20T09:55:39.813Z,71.31
2018-11-20T09:58:26.790Z,71.06
2018-11-20T10:01:10.127Z,70.84
2018-11-20T10:03:56.146Z,70.91
2018-11-20T10:06:50.501Z,69.38
2018-11-20T10:09:50.109Z,70.51
2018-11-20T10:12:46.169Z,71.21
2018-11-20T10:15:29.774Z,71.64
2018-11-20T10:18:36.614Z,71.28
2018-11-20T10:21:40.285Z,71.03
2018-11-20T10:24:31.176Z,70.86
2018-11-20T10:27:12.045Z,71.30
2018-11-20T10:29:59.324Z,69.71
2018-11-20T10:33:06.142Z,70.56
2018-11-20T10:36:04.679Z,70.60
2018-11-20T10:38:58.052Z,71.15
2018-11-20T10:41:40.601Z,71.01
2018-11-20T10:44:27.818Z,70.76
2018-11-20T10:47:28.414Z,70.47
2018-11-20T10:50:25.812Z,70.71
2018-11-20T10:53:14.834Z,70.61
2018-11-20T10:56:09.484Z,71.04
2018-11-20T10:58:56.388Z,70.37
2018-11-20T11:01:43.696Z,70.77
2018-11-20T11:04:37.983Z,70.67
2018-11-20T11:07:25.856Z,70.85
2018-11-20T11:10:09.874Z,70.96
2018-11-20T11:12:56.791Z,70.98
2018-11-20T11:15:54.174Z,70.64
2018-11-20T11:18:50.821Z,70.72
2018-11-20T11:21:47.986Z,70.43
2018-11-20T11:24:45.548Z,71.03
2018-11-20T11:27:32.472Z,70.69
2018-11-20T11:30:19.977Z,70.54
2018-11-20T11:33:07.000Z,69.94
2018-11-20T11:35:53.883Z,70.14
2018-11-20T11:38:41.137Z,70.29
2018-11-20T11:41:29.452Z,69.99
2018-11-20T11:44:22.933Z,70.31
2018-11-20T11:47:02.914Z,70.07
2018-11-20T11:49:49.735Z,70.04
2018-11-20T11:52:36.584Z,69.94
2018-11-20T11:55:23.844Z,69.79
2018-11-20T11:58:10.716Z,69.68
2018-11-20T12:01:11.567Z,69.89
2018-11-20T12:04:18.312Z,69.21
2018-11-20T12:07:05.455Z,69.56
2018-11-20T12:10:00.000Z,69.52
2018-11-20T12:12:48.330Z,68.92
2018-11-20T12:15:37.210Z,69.03
2018-11-20T12:18:41.115Z,69.25
2018-11-20T12:21:20.649Z,69.44
2018-11-20T12:24:15.067Z,69.54
2018-11-20T12:27:02.634Z,69.67
2018-11-20T12:29:57.369Z,69.05
2018-11-20T12:32:39.318Z,69.12
2018-11-20T12:35:33.112Z,69.16
2018-11-20T12:38:12.147Z,68.75
2018-11-20T12:41:09.788Z,68.44
2018-11-20T12:43:56.804Z,68.84
2018-11-20T12:46:51.059Z,68.01
2018-11-20T12:49:38.335Z,68.36
2018-11-20T12:52:27.122Z,67.60
2018-11-20T12:55:14.078Z,67.70
2018-11-20T12:58:13.890Z,67.56
2018-11-20T13:01:00.171Z,67.07
2018-11-20T13:03:57.623Z,67.58
2018-11-20T13:07:05.212Z,67.55
2018-11-20T13:09:50.858Z,67.35
2018-11-20T13:13:50.207Z,67.71
2018-11-20T13:16:42.261Z,67.62
2018-11-20T13:19:42.301Z,67.33
2018-11-20T13:22:39.658Z,67.54
2018-11-20T13:25:24.523Z,67.02
2018-11-20T13:28:14.816Z,67.20
2018-11-20T13:31:02.373Z,67.48
2018-11-20T13:33:53.172Z,67.12
2018-11-20T13:36:38.475Z,66.96
2018-11-20T13:39:35.912Z,67.13
2018-11-20T13:42:32.964Z,66.97
2018-11-20T13:45:10.161Z,66.97
2018-11-20T13:48:12.909Z,66.79
2018-11-20T13:50:46.950Z,66.60
2018-11-20T13:53:40.553Z,66.65
2018-11-20T13:56:26.988Z,66.42
2018-11-20T13:59:26.569Z,66.12
2018-11-20T14:02:12.696Z,66.75
2018-11-20T14:04:59.259Z,66.62
2018-11-20T14:07:45.322Z,66.76
2018-11-20T14:10:31.717Z,66.57
2018-11-20T14:13:17.899Z,66.66
2018-11-20T14:16:04.011Z,66.48
2018-11-20T14:18:51.527Z,66.78
2018-11-20T14:21:44.941Z,66.44
2018-11-20T14:24:35.413Z,66.53
2018-11-20T14:27:22.864Z,65.92
2018-11-20T14:30:08.967Z,66.13
2018-11-20T14:33:05.361Z,66.58
2018-11-20T14:36:04.774Z,66.89
2018-11-20T14:38:56.522Z,66.56
2018-11-20T14:41:37.296Z,66.83
2018-11-20T14:44:27.818Z,66.67
2018-11-20T14:47:14.308Z,66.71
2018-11-20T14:50:00.666Z,66.77
2018-11-20T14:52:54.361Z,66.28
2018-11-20T14:55:40.511Z,66.77
2018-11-20T14:58:16.896Z,66.93
2018-11-20T15:01:07.409Z,67.21
2018-11-20T15:03:59.809Z,66.84
2018-11-20T15:06:46.506Z,66.43
2018-11-20T15:09:29.539Z,66.69
2018-11-20T15:12:17.307Z,66.82
2018-11-20T15:15:07.539Z,67.05
2018-11-20T15:18:10.813Z,66.65
2018-11-20T15:21:16.567Z,66.81
2018-11-20T15:23:53.664Z,67.20
2018-11-20T15:26:39.716Z,66.51
2018-11-20T15:29:19.694Z,66.43
2018-11-20T15:32:05.638Z,67.11
2018-11-20T15:34:52.076Z,66.87
2018-11-20T15:37:38.498Z,67.16
2018-11-20T15:40:42.554Z,66.93
2018-11-20T15:43:28.952Z,67.56
2018-11-20T15:46:16.486Z,67.22
2018-11-20T15:49:11.027Z,66.24
2018-11-20T15:51:59.420Z,66.83
2018-11-20T15:54:52.635Z,66.60
2018-11-20T15:57:38.981Z,67.17
2018-11-20T16:00:24.153Z,67.17
2018-11-20T16:03:28.950Z,67.36
2018-11-20T16:06:14.079Z,67.47
2018-11-20T16:08:59.682Z,67.78
2018-11-20T16:11:42.463Z,67.96
2018-11-20T16:14:29.219Z,67.56
2018-11-20T16:17:22.704Z,68.01
2018-11-20T16:19:59.104Z,67.98
2018-11-20T16:22:45.260Z,68.17
2018-11-20T16:25:31.527Z,68.07
2018-11-20T16:28:19.061Z,68.15
2018-11-20T16:31:21.601Z,68.39
2018-11-20T16:34:07.985Z,68.19
2018-11-20T16:36:55.564Z,68.22
2018-11-20T16:39:42.072Z,68.65
2018-11-20T16:42:29.741Z,68.95
2018-11-20T16:45:26.329Z,68.51
2018-11-20T16:48:06.903Z,68.59
2018-11-20T16:50:54.426Z,68.73
2018-11-20T16:53:54.052Z,68.96
2018-11-20T16:56:36.288Z,68.61
2018-11-20T16:59:29.960Z,69.34
2018-11-20T17:02:16.569Z,69.19
2018-11-20T17:05:02.957Z,69.08
2018-11-20T17:07:57.015Z,69.29
2018-11-20T17:10:42.859Z,69.35
2018-11-20T17:15:51.161Z,69.37
2018-11-20T17:18:37.242Z,69.29
2018-11-20T17:21:23.949Z,69.00
2018-11-20T17:24:20.587Z,69.60
2018-11-20T17:27:13.860Z,69.49
2018-11-20T17:30:04.330Z,69.08
2018-11-20T17:32:50.693Z,69.40
2018-11-20T17:35:37.030Z,69.40
2018-11-20T17:38:19.172Z,69.60
2018-11-20T17:41:06.758Z,69.26
2018-11-20T17:44:09.596Z,69.10
2018-11-20T17:46:55.571Z,69.51
2018-11-20T17:49:48.853Z,69.63
2018-11-20T17:52:35.229Z,69.66
2018-11-20T17:55:32.065Z,69.73
2018-11-20T17:58:08.944Z,69.71
2018-11-20T18:00:54.848Z,69.77
2018-11-20T18:03:45.108Z,69.80
2018-11-20T18:06:41.509Z,69.48
2018-11-20T18:09:17.364Z,69.56
2018-11-20T18:12:04.009Z,69.47
2018-11-20T18:15:07.575Z,69.80
2018-11-20T18:17:53.925Z,70.00
2018-11-20T18:20:56.480Z,69.98
2018-11-20T18:23:42.821Z,69.99
2018-11-20T18:26:26.041Z,70.02
2018-11-20T18:29:11.995Z,70.06
2018-11-20T18:31:58.273Z,70.11
2018-11-20T18:34:45.978Z,70.31
2018-11-20T18:37:45.369Z,70.23
2018-11-20T18:40:31.873Z,69.99
2018-11-20T18:43:23.387Z,69.90
2018-11-20T18:46:17.170Z,70.21
2018-11-20T18:49:14.012Z,70.43
2018-11-20T18:52:01.576Z,70.56
2018-11-20T18:54:51.976Z,69.99
2018-11-20T18:57:43.038Z,70.56
2018-11-20T19:00:49.125Z,70.20
2018-11-20T19:03:35.650Z,70.37
2018-11-20T19:06:27.071Z,70.15
2018-11-20T19:09:13.027Z,70.51
2018-11-20T19:12:03.704Z,70.71
2018-11-20T19:14:54.365Z,70.42
2018-11-20T19:17:40.421Z,70.12
2018-11-20T19:20:40.272Z,70.61
2018-11-20T19:23:26.650Z,70.20
2018-11-20T19:26:12.812Z,70.56
2018-11-20T19:29:09.245Z,70.84
2018-11-20T19:32:11.788Z,70.76
2018-11-20T19:34:59.824Z,70.95
2018-11-20T19:37:40.508Z,70.53
2018-11-20T19:40:34.233Z,70.66
2018-11-20T19:43:20.333Z,70.92
2018-11-20T19:46:06.364Z,71.31
2018-11-20T19:48:47.724Z,70.99
2018-11-20T19:51:33.932Z,71.50
2018-11-20T19:54:20.296Z,70.87
2018-11-20T19:57:23.152Z,71.55
2018-11-20T20:00:17.063Z,71.27
2018-11-20T20:03:04.897Z,71.19
2018-11-20T20:05:52.469Z,71.50
2018-11-20T20:08:40.048Z,71.34
2018-11-20T20:11:30.552Z,71.35
2018-11-20T20:14:36.147Z,71.53
2018-11-20T20:17:29.596Z,71.23
2018-11-20T20:20:18.853Z,71.58
2018-11-20T20:23:04.940Z,71.64
2018-11-20T20:25:58.365Z,71.31
2018-11-20T20:28:43.271Z,71.51
2018-11-20T20:31:30.866Z,71.86
2018-11-20T20:34:16.988Z,71.54
2018-11-20T20:37:11.439Z,71.52
2018-11-20T20:39:57.677Z,71.68
2018-11-20T20:42:37.890Z,71.96
2018-11-20T20:45:25.315Z,72.30
2018-11-20T20:48:15.483Z,72.00
2018-11-20T20:51:18.127Z,72.08
2018-11-20T20:54:06.741Z,71.93
2018-11-20T20:56:52.885Z,71.88
2018-11-20T20:59:40.095Z,71.78
2018-11-20T21:02:36.328Z,71.73
2018-11-20T21:05:35.259Z,71.61
2018-11-20T21:08:21.775Z,71.53
2018-11-20T21:11:12.085Z,71.70
2018-11-20T21:14:02.555Z,71.82
2018-11-20T21:17:02.190Z,71.58
2018-11-20T21:20:04.852Z,71.81
2018-11-20T21:22:55.502Z,71.84
2018-11-20T21:25:52.118Z,71.79
2018-11-20T21:28:29.430Z,71.98
2018-11-20T21:31:26.088Z,71.54
2018-11-20T21:34:19.140Z,71.73
2018-11-20T21:37:06.666Z,72.17
2018-11-20T21:40:04.676Z,72.34
2018-11-20T21:42:47.524Z,72.68
2018-11-20T21:45:33.801Z,72.58
2018-11-20T21:48:24.052Z,72.44
2018-11-20T21:51:11.609Z,72.10
2018-11-20T21:53:57.807Z,72.23
2018-11-20T21:56:54.516Z,71.81
2018-11-20T21:59:51.853Z,72.40
2018-11-20T22:02:38.859Z,72.17
2018-11-20T22:05:25.699Z,72.35
2018-11-20T22:08:13.501Z,72.95
2018-11-20T22:10:59.547Z,72.75
2018-11-20T22:13:38.827Z,72.72
2018-11-20T22:16:25.304Z,72.60
2018-11-20T22:19:12.326Z,72.55
2018-11-20T22:22:00.260Z,72.23
2018-11-20T22:25:03.512Z,72.13
2018-11-20T22:28:06.825Z,71.87
2018-11-20T22:30:57.529Z,71.92
2018-11-20T22:33:45.179Z,72.31
2018-11-20T22:36:41.556Z,72.70
2018-11-20T22:39:16.613Z,73.24
2018-11-20T22:42:10.351Z,73.00
2018-11-20T22:44:56.386Z,72.53
2018-11-20T22:47:46.579Z,72.85
2018-11-20T22:50:36.942Z,72.70
2018-11-20T22:53:23.535Z,72.43
2018-11-20T22:56:16.463Z,72.73
2018-11-20T22:59:10.066Z,72.68
2018-11-20T23:02:12.745Z,72.73
2018-11-20T23:04:57.815Z,72.67
2018-11-20T23:07:51.020Z,72.46
2018-11-20T23:10:24.941Z,72.71
2018-11-20T23:12:53.951Z,72.55
2018-11-20T23:15:23.008Z,72.31
2018-11-20T23:17:51.678Z,72.31
2018-11-20T23:20:20.079Z,72.82
2018-11-20T23:22:48.614Z,73.02
2018-11-20T23:25:17.090Z,73.08
2018-11-20T23:27:45.568Z,72.91
2018-11-20T23:30:15.139Z,72.88
2018-11-20T23:32:45.746Z,72.87
2018-11-20T23:35:14.383Z,72.80
2018-11-20T23:37:43.371Z,73.07
2018-11-20T23:40:13.105Z,73.06
2018-11-20T23:42:41.586Z,72.74
2018-11-20T23:45:12.535Z,72.13
2018-11-20T23:47:41.037Z,72.30
2018-11-20T23:50:11.513Z,72.39
2018-11-20T23:52:40.116Z,72.43
2018-11-20T23:55:10.993Z,72.30
2018-11-20T23:57:39.438Z,72.33
